createdAt,value
2023-04-16T00:00:48.179Z,65.10
2023-04-16T00:01:48.214Z,68.20
2023-04-16T00:02:48.256Z,66.40
2023-04-16T00:03:48.368Z,62.80
2023-04-16T00:04:48.089Z,64.80
2023-04-16T00:05:48.060Z,67.60
2023-04-16T00:06:48.022Z,71.90
2023-04-16T00:07:48.007Z,66.80
2023-04-16T00:08:47.977Z,70.00
2023-04-16T00:09:47.947Z,63.70
2023-04-16T00:10:47.925Z,64.10
2023-04-16T00:11:47.897Z,68.70
2023-04-16T00:12:47.872Z,62.10
2023-04-16T00:13:47.957Z,66.60
2023-04-16T00:14:47.820Z,64.60
2023-04-16T00:15:47.806Z,69.20
2023-04-16T00:16:47.839Z,67.10
2023-04-16T00:17:47.832Z,67.90
2023-04-16T00:18:47.719Z,67.30
2023-04-16T00:19:47.687Z,69.40
2023-04-16T00:20:47.663Z,65.60
2023-04-16T00:21:47.645Z,65.50
2023-04-16T00:22:47.613Z,69.30
2023-04-16T00:23:47.615Z,66.60
2023-04-16T00:24:47.580Z,67.70
2023-04-16T00:25:47.541Z,66.00
2023-04-16T00:26:47.512Z,72.00
2023-04-16T00:27:47.500Z,63.30
2023-04-16T00:28:47.463Z,67.90
2023-04-16T00:29:47.457Z,64.60
2023-04-16T00:30:47.426Z,66.80
2023-04-16T00:31:47.384Z,64.80
2023-04-16T00:32:47.399Z,69.40
2023-04-16T00:33:47.335Z,67.20
2023-04-16T00:34:47.310Z,65.70
2023-04-16T00:35:47.297Z,66.10
2023-04-16T00:36:47.262Z,65.50
2023-04-16T00:37:47.225Z,69.50
2023-04-16T00:38:47.201Z,69.10
2023-04-16T00:39:47.170Z,63.80
2023-04-16T00:40:47.148Z,68.40
2023-04-16T00:41:47.162Z,65.00
2023-04-16T00:42:47.103Z,66.00
2023-04-16T00:43:47.080Z,70.20
2023-04-16T00:44:47.061Z,67.10
2023-04-16T00:45:47.086Z,67.10
2023-04-16T00:46:47.226Z,65.90
2023-04-16T00:47:47.003Z,67.30
2023-04-16T00:48:46.948Z,66.10
2023-04-16T00:49:46.915Z,71.00
2023-04-16T00:50:46.891Z,68.80
2023-04-16T00:51:46.866Z,63.80
2023-04-16T00:52:46.850Z,66.90
2023-04-16T00:53:46.810Z,73.90
2023-04-16T00:54:46.794Z,65.30
2023-04-16T00:55:46.771Z,66.40
2023-04-16T00:56:46.736Z,69.90
2023-04-16T00:57:46.712Z,74.80
2023-04-16T00:58:46.687Z,69.50
2023-04-16T00:59:46.658Z,71.70
2023-04-16T01:00:46.632Z,73.30
2023-04-16T01:01:46.720Z,69.70
2023-04-16T01:02:46.667Z,68.20
2023-04-16T01:03:46.745Z,73.90
2023-04-16T01:04:46.537Z,72.10
2023-04-16T01:05:46.506Z,69.30
2023-04-16T01:06:46.479Z,68.40
2023-04-16T01:07:46.457Z,72.70
2023-04-16T01:08:46.445Z,74.70
2023-04-16T01:09:46.402Z,73.40
2023-04-16T01:10:46.381Z,68.40
2023-04-16T01:11:46.353Z,70.30
2023-04-16T01:12:46.328Z,70.10
2023-04-16T01:13:46.298Z,77.50
2023-04-16T01:14:46.281Z,67.40
2023-04-16T01:15:46.294Z,72.60
2023-04-16T01:16:46.234Z,71.80
2023-04-16T01:17:46.268Z,72.50
2023-04-16T01:18:46.180Z,74.80
2023-04-16T01:19:46.144Z,76.40
2023-04-16T01:20:46.122Z,74.80
2023-04-16T01:21:46.099Z,75.30
2023-04-16T01:22:46.074Z,68.40
2023-04-16T01:23:46.044Z,72.10
2023-04-16T01:24:46.024Z,71.40
2023-04-16T01:25:45.998Z,75.40
2023-04-16T01:26:45.971Z,72.00
2023-04-16T01:27:45.939Z,71.60
2023-04-16T01:28:45.934Z,76.00
2023-04-16T01:29:45.889Z,73.90
2023-04-16T01:30:45.860Z,71.80
2023-04-16T01:31:45.956Z,72.60
2023-04-16T01:32:45.864Z,71.80
2023-04-16T01:33:45.806Z,65.30
2023-04-16T01:34:45.766Z,67.00
2023-04-16T01:35:45.736Z,66.50
2023-04-16T01:36:45.721Z,73.00
2023-04-16T01:37:45.687Z,65.00
2023-04-16T01:38:45.660Z,67.30
2023-04-16T01:39:45.636Z,66.20
2023-04-16T01:40:45.603Z,65.80
2023-04-16T01:41:45.578Z,59.70
2023-04-16T01:42:45.559Z,66.20
2023-04-16T01:43:45.530Z,62.50
2023-04-16T01:44:45.509Z,59.10
2023-04-16T01:45:45.482Z,62.30
2023-04-16T01:46:45.472Z,71.40
2023-04-16T01:47:45.439Z,63.00
2023-04-16T01:48:45.401Z,61.10
2023-04-16T01:49:45.394Z,69.40
2023-04-16T01:50:45.350Z,58.20
2023-04-16T01:51:45.329Z,62.40
2023-04-16T01:52:45.308Z,63.40
2023-04-16T01:53:45.268Z,58.80
2023-04-16T01:54:45.251Z,63.30
2023-04-16T01:55:45.221Z,62.10
2023-04-16T01:56:45.200Z,61.60
2023-04-16T01:57:45.170Z,61.10
2023-04-16T01:58:45.149Z,59.80
2023-04-16T01:59:45.129Z,57.90
2023-04-16T02:00:45.174Z,57.40
2023-04-16T02:01:45.107Z,63.00
2023-04-16T02:02:45.246Z,59.50
2023-04-16T02:03:45.292Z,63.40
2023-04-16T02:04:45.014Z,62.90
2023-04-16T02:05:45.002Z,56.20
2023-04-16T02:06:44.935Z,59.40
2023-04-16T02:07:44.918Z,60.60
2023-04-16T02:08:44.890Z,62.40
2023-04-16T02:09:44.863Z,63.00
2023-04-16T02:10:44.849Z,63.60
2023-04-16T02:11:44.816Z,59.80
2023-04-16T02:12:44.795Z,60.60
2023-04-16T02:13:44.756Z,64.20
2023-04-16T02:14:44.734Z,61.70
2023-04-16T02:15:44.706Z,61.20
2023-04-16T02:16:44.728Z,56.70
2023-04-16T02:17:44.674Z,61.60
2023-04-16T02:18:44.644Z,57.00
2023-04-16T02:19:44.596Z,63.50
2023-04-16T02:20:44.611Z,65.30
2023-04-16T02:21:44.570Z,59.60
2023-04-16T02:22:44.526Z,58.80
2023-04-16T02:23:44.504Z,60.20
2023-04-16T02:24:44.483Z,62.20
2023-04-16T02:25:44.479Z,63.60
2023-04-16T02:26:44.419Z,61.70
2023-04-16T02:27:44.391Z,65.70
2023-04-16T02:28:44.366Z,60.50
2023-04-16T02:29:44.342Z,62.20
2023-04-16T02:30:44.328Z,68.00
2023-04-16T02:31:44.347Z,64.50
2023-04-16T02:32:44.301Z,67.70
2023-04-16T02:33:44.238Z,60.40
2023-04-16T02:34:44.213Z,64.20
2023-04-16T02:35:44.186Z,65.10
2023-04-16T02:36:44.172Z,65.10
2023-04-16T02:37:44.215Z,67.20
2023-04-16T02:38:44.112Z,62.70
2023-04-16T02:39:44.184Z,59.00
2023-04-16T02:40:44.061Z,68.20
2023-04-16T02:41:44.030Z,63.00
2023-04-16T02:42:44.016Z,64.10
2023-04-16T02:43:43.979Z,65.70
2023-04-16T02:44:43.970Z,64.70
2023-04-16T02:45:43.944Z,58.70
2023-04-16T02:46:43.912Z,59.50
2023-04-16T02:47:43.914Z,61.20
2023-04-16T02:48:43.866Z,59.50
2023-04-16T02:49:43.831Z,60.70
2023-04-16T02:50:43.800Z,62.10
2023-04-16T02:51:43.787Z,61.90
2023-04-16T02:52:43.753Z,59.50
2023-04-16T02:53:43.780Z,61.50
2023-04-16T02:54:43.697Z,60.00
2023-04-16T02:55:43.670Z,57.60
2023-04-16T02:56:43.658Z,62.00
2023-04-16T02:57:43.622Z,58.80
2023-04-16T02:58:43.607Z,59.80
2023-04-16T02:59:43.569Z,58.70
2023-04-16T03:00:43.545Z,60.20
2023-04-16T03:01:43.560Z,56.10
2023-04-16T03:02:43.586Z,56.70
2023-04-16T03:03:43.466Z,60.60
2023-04-16T03:04:43.552Z,58.20
2023-04-16T03:05:43.410Z,57.00
2023-04-16T03:06:43.394Z,56.70
2023-04-16T03:07:43.369Z,57.20
2023-04-16T03:08:43.339Z,59.10
2023-04-16T03:09:43.329Z,54.70
2023-04-16T03:10:43.290Z,56.10
2023-04-16T03:11:43.261Z,56.50
2023-04-16T03:12:43.235Z,56.90
2023-04-16T03:13:43.226Z,55.70
2023-04-16T03:14:43.184Z,57.20
2023-04-16T03:15:43.177Z,55.90
2023-04-16T03:16:43.132Z,57.30
2023-04-16T03:17:43.171Z,57.90
2023-04-16T03:18:43.081Z,55.90
2023-04-16T03:19:43.056Z,57.00
2023-04-16T03:20:43.043Z,55.70
2023-04-16T03:21:43.005Z,53.60
2023-04-16T03:22:42.979Z,57.00
2023-04-16T03:23:42.964Z,58.00
2023-04-16T03:24:42.965Z,55.00
2023-04-16T03:25:42.952Z,53.20
2023-04-16T03:26:42.942Z,53.50
2023-04-16T03:27:42.852Z,53.90
2023-04-16T03:28:42.827Z,56.70
2023-04-16T03:29:42.797Z,52.90
2023-04-16T03:30:42.780Z,51.70
2023-04-16T03:31:42.821Z,53.20
2023-04-16T03:32:42.781Z,56.00
2023-04-16T03:33:42.690Z,55.30
2023-04-16T03:34:42.681Z,57.10
2023-04-16T03:35:42.644Z,53.50
2023-04-16T03:36:42.624Z,58.80
2023-04-16T03:37:42.597Z,52.10
2023-04-16T03:38:42.583Z,52.00
2023-04-16T03:39:42.557Z,53.80
2023-04-16T03:40:42.514Z,51.60
2023-04-16T03:41:42.510Z,55.30
2023-04-16T03:42:42.471Z,50.60
2023-04-16T03:43:42.441Z,56.70
2023-04-16T03:44:42.421Z,52.50
2023-04-16T03:45:42.389Z,53.20
2023-04-16T03:46:42.410Z,55.00
2023-04-16T03:47:42.366Z,52.80
2023-04-16T03:48:42.316Z,56.50
2023-04-16T03:49:42.293Z,52.10
2023-04-16T03:50:42.265Z,51.80
2023-04-16T03:51:42.240Z,51.80
2023-04-16T03:52:42.211Z,52.80
2023-04-16T03:53:42.193Z,50.60
2023-04-16T03:54:42.161Z,54.70
2023-04-16T03:55:42.137Z,50.10
2023-04-16T03:56:42.110Z,53.10
2023-04-16T03:57:42.101Z,53.90
2023-04-16T03:58:42.078Z,50.80
2023-04-16T03:59:42.027Z,49.70
2023-04-16T04:00:42.008Z,48.30
2023-04-16T04:01:42.030Z,50.90
2023-04-16T04:02:42.098Z,50.60
2023-04-16T04:03:42.025Z,50.70
2023-04-16T04:04:41.983Z,50.60
2023-04-16T04:05:41.878Z,49.10
2023-04-16T04:06:41.856Z,52.30
2023-04-16T04:07:41.828Z,51.50
2023-04-16T04:08:41.807Z,52.50
2023-04-16T04:09:41.773Z,51.00
2023-04-16T04:10:41.756Z,46.80
2023-04-16T04:11:41.721Z,49.10
2023-04-16T04:12:41.696Z,49.20
2023-04-16T04:13:41.694Z,49.10
2023-04-16T04:14:41.650Z,49.40
2023-04-16T04:15:41.627Z,48.50
2023-04-16T04:16:41.666Z,47.30
2023-04-16T04:17:41.592Z,49.70
2023-04-16T04:18:43.947Z,48.00
2023-04-16T04:19:47.070Z,48.60
2023-04-16T04:20:41.494Z,49.30
2023-04-16T04:21:41.465Z,48.40
2023-04-16T04:22:41.438Z,47.30
2023-04-16T04:23:41.417Z,46.50
2023-04-16T04:24:41.392Z,48.30
2023-04-16T04:25:41.372Z,48.40
2023-04-16T04:26:41.346Z,47.10
2023-04-16T04:27:41.311Z,46.50
2023-04-16T04:28:41.289Z,47.90
2023-04-16T04:29:41.282Z,46.80
2023-04-16T04:30:41.241Z,48.00
2023-04-16T04:31:41.266Z,46.40
2023-04-16T04:32:41.228Z,47.40
2023-04-16T04:33:41.163Z,48.50
2023-04-16T04:34:41.134Z,46.70
2023-04-16T04:35:41.121Z,49.80
2023-04-16T04:36:41.080Z,49.90
2023-04-16T04:37:41.090Z,47.20
2023-04-16T04:38:41.035Z,48.10
2023-04-16T04:39:41.008Z,47.00
2023-04-16T04:40:40.976Z,47.90
2023-04-16T04:41:40.955Z,47.00
2023-04-16T04:42:40.936Z,47.30
2023-04-16T04:43:40.899Z,46.80
2023-04-16T04:44:40.877Z,47.90
2023-04-16T04:45:40.899Z,48.20
2023-04-16T04:46:40.826Z,47.70
2023-04-16T04:47:40.799Z,46.80
2023-04-16T04:48:40.768Z,50.20
2023-04-16T04:49:40.743Z,46.30
2023-04-16T04:50:40.720Z,43.70
2023-04-16T04:51:40.697Z,46.10
2023-04-16T04:52:40.662Z,44.30
2023-04-16T04:53:40.635Z,44.20
2023-04-16T04:54:40.619Z,44.10
2023-04-16T04:55:40.603Z,43.50
2023-04-16T04:56:40.565Z,43.90
2023-04-16T04:57:40.540Z,42.10
2023-04-16T04:58:40.511Z,42.60
2023-04-16T04:59:40.495Z,43.50
2023-04-16T05:00:40.461Z,42.00
2023-04-16T05:01:40.476Z,41.90
2023-04-16T05:02:40.554Z,42.30
2023-04-16T05:03:40.528Z,41.40
2023-04-16T05:04:40.380Z,40.80
2023-04-16T05:05:40.334Z,42.00
2023-04-16T05:06:40.306Z,42.20
2023-04-16T05:07:40.281Z,41.20
2023-04-16T05:08:40.258Z,41.30
2023-04-16T05:09:40.240Z,41.70
2023-04-16T05:10:40.199Z,42.30
2023-04-16T05:11:40.181Z,42.00
2023-04-16T05:12:40.167Z,42.00
2023-04-16T05:13:40.133Z,41.40
2023-04-16T05:14:40.096Z,40.30
2023-04-16T05:15:40.073Z,42.00
2023-04-16T05:16:40.070Z,40.60
2023-04-16T05:17:40.094Z,41.20
2023-04-16T05:18:39.996Z,42.60
2023-04-16T05:19:39.967Z,41.90
2023-04-16T05:20:39.945Z,42.00
2023-04-16T05:21:39.918Z,39.90
2023-04-16T05:22:39.941Z,42.90
2023-04-16T05:23:39.865Z,43.10
2023-04-16T05:24:39.846Z,42.10
2023-04-16T05:25:39.817Z,43.30
2023-04-16T05:26:39.791Z,41.70
2023-04-16T05:27:39.766Z,42.70
2023-04-16T05:28:39.742Z,42.40
2023-04-16T05:29:39.722Z,43.40
2023-04-16T05:30:39.715Z,42.80
2023-04-16T05:31:39.660Z,44.40
2023-04-16T05:32:39.662Z,45.00
2023-04-16T05:33:39.680Z,42.90
2023-04-16T05:34:39.589Z,44.50
2023-04-16T05:35:39.567Z,45.30
2023-04-16T05:36:39.528Z,45.10
2023-04-16T05:37:39.507Z,44.90
2023-04-16T05:38:39.485Z,45.20
2023-04-16T05:39:39.457Z,44.90
2023-04-16T05:40:39.434Z,44.90
2023-04-16T05:41:39.403Z,43.30
2023-04-16T05:42:39.374Z,46.40
2023-04-16T05:43:39.353Z,45.50
2023-04-16T05:44:39.334Z,45.70
2023-04-16T05:45:39.300Z,43.30
2023-04-16T05:46:39.348Z,43.60
2023-04-16T05:47:39.319Z,43.10
2023-04-16T05:48:39.229Z,42.90
2023-04-16T05:49:39.225Z,41.80
2023-04-16T05:50:39.169Z,41.60
2023-04-16T05:51:39.145Z,41.50
2023-04-16T05:52:39.112Z,42.00
2023-04-16T05:53:39.108Z,40.40
2023-04-16T05:54:39.085Z,41.40
2023-04-16T05:55:39.040Z,42.90
2023-04-16T05:56:39.022Z,42.50
2023-04-16T05:57:38.991Z,41.20
2023-04-16T05:58:38.962Z,43.60
2023-04-16T05:59:38.938Z,44.20
2023-04-16T06:00:38.904Z,42.70
2023-04-16T06:01:38.880Z,43.40
2023-04-16T06:02:38.970Z,44.20
2023-04-16T06:03:39.031Z,43.90
2023-04-16T06:04:38.810Z,43.50
2023-04-16T06:05:38.832Z,46.10
2023-04-16T06:06:38.779Z,45.10
2023-04-16T06:07:38.745Z,46.30
2023-04-16T06:08:38.715Z,46.10
2023-04-16T06:09:38.687Z,46.50
2023-04-16T06:10:38.658Z,46.30
2023-04-16T06:11:38.626Z,45.90
2023-04-16T06:12:38.596Z,48.20
2023-04-16T06:13:38.570Z,48.20
2023-04-16T06:14:38.571Z,47.00
2023-04-16T06:15:38.544Z,47.90
2023-04-16T06:16:38.490Z,48.60
2023-04-16T06:17:38.526Z,46.60
2023-04-16T06:18:38.447Z,49.00
2023-04-16T06:19:38.431Z,48.90
2023-04-16T06:20:38.411Z,46.10
2023-04-16T06:21:38.386Z,47.70
2023-04-16T06:22:38.341Z,49.10
2023-04-16T06:23:38.322Z,47.40
2023-04-16T06:24:38.284Z,47.20
2023-04-16T06:25:38.259Z,48.70
2023-04-16T06:26:38.238Z,46.60
2023-04-16T06:27:38.207Z,47.90
2023-04-16T06:28:38.177Z,47.10
2023-04-16T06:29:41.731Z,48.10
2023-04-16T06:30:38.124Z,47.90
2023-04-16T06:31:38.139Z,47.60
2023-04-16T06:32:38.120Z,46.50
2023-04-16T06:33:38.055Z,47.30
2023-04-16T06:34:38.025Z,45.60
2023-04-16T06:35:38.003Z,47.00
2023-04-16T06:36:37.978Z,47.30
2023-04-16T06:37:37.974Z,44.70
2023-04-16T06:38:37.935Z,46.70
2023-04-16T06:39:37.902Z,46.30
2023-04-16T06:40:37.874Z,46.60
2023-04-16T06:41:37.848Z,45.50
2023-04-16T06:42:37.820Z,46.90
2023-04-16T06:43:37.816Z,47.40
2023-04-16T06:44:37.769Z,45.60
2023-04-16T06:45:37.748Z,44.40
2023-04-16T06:46:37.776Z,45.30
2023-04-16T06:47:37.713Z,44.90
2023-04-16T06:48:37.660Z,44.90
2023-04-16T06:49:37.645Z,44.90
2023-04-16T06:50:37.616Z,44.30
2023-04-16T06:51:37.594Z,46.80
2023-04-16T06:52:37.571Z,46.30
2023-04-16T06:53:37.595Z,45.20
2023-04-16T06:54:37.507Z,45.10
2023-04-16T06:55:37.487Z,45.50
2023-04-16T06:56:37.485Z,45.10
2023-04-16T06:57:37.748Z,43.70
2023-04-16T06:58:37.403Z,47.00
2023-04-16T06:59:37.385Z,46.00
2023-04-16T07:00:37.373Z,47.50
2023-04-16T07:01:37.331Z,46.10
2023-04-16T07:02:37.380Z,47.70
2023-04-16T07:03:37.501Z,46.00
2023-04-16T07:04:37.290Z,46.60
2023-04-16T07:05:37.236Z,44.80
2023-04-16T07:06:37.205Z,45.20
2023-04-16T07:07:37.184Z,47.70
2023-04-16T07:08:37.154Z,44.30
2023-04-16T07:09:37.154Z,45.70
2023-04-16T07:10:37.099Z,46.70
2023-04-16T07:11:37.072Z,44.40
2023-04-16T07:12:37.047Z,45.60
2023-04-16T07:13:37.032Z,44.00
2023-04-16T07:14:37.011Z,43.90
2023-04-16T07:15:36.982Z,41.70
2023-04-16T07:16:36.986Z,43.30
2023-04-16T07:17:36.978Z,43.00
2023-04-16T07:18:36.895Z,44.50
2023-04-16T07:19:36.875Z,43.10
2023-04-16T07:20:36.835Z,44.00
2023-04-16T07:21:36.814Z,44.30
2023-04-16T07:22:36.795Z,43.80
2023-04-16T07:23:36.767Z,44.10
2023-04-16T07:24:36.751Z,44.80
2023-04-16T07:25:36.735Z,45.80
2023-04-16T07:26:36.684Z,45.70
2023-04-16T07:27:36.660Z,46.40
2023-04-16T07:28:36.636Z,45.10
2023-04-16T07:29:36.614Z,45.20
2023-04-16T07:30:36.585Z,44.70
2023-04-16T07:31:36.615Z,45.30
2023-04-16T07:32:36.548Z,44.40
2023-04-16T07:33:36.514Z,43.90
2023-04-16T07:34:36.484Z,43.10
2023-04-16T07:35:36.461Z,44.80
2023-04-16T07:36:36.441Z,44.70
2023-04-16T07:37:36.417Z,44.00
2023-04-16T07:38:36.385Z,42.70
2023-04-16T07:39:36.367Z,43.50
2023-04-16T07:40:36.333Z,43.30
2023-04-16T07:41:36.329Z,44.30
2023-04-16T07:42:36.281Z,45.00
2023-04-16T07:43:36.251Z,44.70
2023-04-16T07:44:36.227Z,43.60
2023-04-16T07:45:36.283Z,44.80
2023-04-16T07:46:46.324Z,43.90
2023-04-16T07:47:36.230Z,43.80
2023-04-16T07:48:36.127Z,43.90
2023-04-16T07:49:36.096Z,45.20
2023-04-16T07:50:36.072Z,43.10
2023-04-16T07:51:36.050Z,45.00
2023-04-16T07:52:36.022Z,43.80
2023-04-16T07:53:35.994Z,43.40
2023-04-16T07:54:35.974Z,44.30
2023-04-16T07:55:35.947Z,42.80
2023-04-16T07:56:35.927Z,44.30
2023-04-16T07:57:35.922Z,43.50
2023-04-16T07:58:35.863Z,43.80
2023-04-16T07:59:35.846Z,44.30
2023-04-16T08:00:35.810Z,43.70
2023-04-16T08:01:35.788Z,43.30
2023-04-16T08:02:35.864Z,42.90
2023-04-16T08:03:35.912Z,43.00
2023-04-16T08:04:36.038Z,43.40
2023-04-16T08:05:35.717Z,43.00
2023-04-16T08:06:35.655Z,42.70
2023-04-16T08:07:35.653Z,43.90
2023-04-16T08:08:35.608Z,41.40
2023-04-16T08:09:35.591Z,42.30
2023-04-16T08:10:35.556Z,42.00
2023-04-16T08:11:35.536Z,43.60
2023-04-16T08:12:35.509Z,41.30
2023-04-16T08:13:35.509Z,42.80
2023-04-16T08:14:35.457Z,44.10
2023-04-16T08:15:35.457Z,41.50
2023-04-16T08:16:35.440Z,42.70
2023-04-16T08:17:35.389Z,42.10
2023-04-16T08:18:35.357Z,41.50
2023-04-16T08:19:35.329Z,42.20
2023-04-16T08:20:35.308Z,43.10
2023-04-16T08:21:35.285Z,43.70
2023-04-16T08:22:35.254Z,40.30
2023-04-16T08:23:35.227Z,41.40
2023-04-16T08:24:35.200Z,40.50
2023-04-16T08:25:35.182Z,39.90
2023-04-16T08:26:35.159Z,39.40
2023-04-16T08:27:35.129Z,39.60
2023-04-16T08:28:35.106Z,40.20
2023-04-16T08:29:35.101Z,41.00
2023-04-16T08:30:35.057Z,40.20
2023-04-16T08:31:35.051Z,39.40
2023-04-16T08:32:35.031Z,40.30
2023-04-16T08:33:34.983Z,39.90
2023-04-16T08:34:34.953Z,39.30
2023-04-16T08:35:34.933Z,40.70
2023-04-16T08:36:34.897Z,40.00
2023-04-16T08:37:34.881Z,40.90
2023-04-16T08:38:34.855Z,39.10
2023-04-16T08:39:34.828Z,39.60
2023-04-16T08:40:34.813Z,39.40
2023-04-16T08:41:34.780Z,39.30
2023-04-16T08:42:34.751Z,40.20
2023-04-16T08:43:34.732Z,39.00
2023-04-16T08:44:34.694Z,40.00
2023-04-16T08:45:34.699Z,40.00
2023-04-16T08:46:34.754Z,40.60
2023-04-16T08:47:34.638Z,41.00
2023-04-16T08:48:34.592Z,39.20
2023-04-16T08:49:34.567Z,41.00
2023-04-16T08:50:34.544Z,39.00
2023-04-16T08:51:34.521Z,40.30
2023-04-16T08:52:34.500Z,39.50
2023-04-16T08:53:34.472Z,39.90
2023-04-16T08:54:34.452Z,41.80
2023-04-16T08:55:34.421Z,41.40
2023-04-16T08:56:34.397Z,41.00
2023-04-16T08:57:34.374Z,39.30
2023-04-16T08:58:34.346Z,36.90
2023-04-16T08:59:34.339Z,37.20
2023-04-16T09:00:34.290Z,36.20
2023-04-16T09:01:34.364Z,38.30
2023-04-16T09:02:34.405Z,37.50
2023-04-16T09:03:36.444Z,39.10
2023-04-16T09:04:34.267Z,36.90
2023-04-16T09:05:34.171Z,38.80
2023-04-16T09:06:34.141Z,39.00
2023-04-16T09:07:34.117Z,37.30
2023-04-16T09:08:34.096Z,37.70
2023-04-16T09:09:34.612Z,36.00
2023-04-16T09:10:34.055Z,35.90
2023-04-16T09:11:34.016Z,35.10
2023-04-16T09:12:33.995Z,35.30
2023-04-16T09:13:33.986Z,37.50
2023-04-16T09:14:33.946Z,35.80
2023-04-16T09:15:35.139Z,36.00
2023-04-16T09:16:33.918Z,34.80
2023-04-16T09:17:34.015Z,35.70
2023-04-16T09:18:33.844Z,34.40
2023-04-16T09:19:33.818Z,35.10
2023-04-16T09:20:33.799Z,34.90
2023-04-16T09:21:33.779Z,34.80
2023-04-16T09:22:33.752Z,35.00
2023-04-16T09:23:33.716Z,35.10
2023-04-16T09:24:33.708Z,34.70
2023-04-16T09:25:33.667Z,35.60
2023-04-16T09:26:33.662Z,35.70
2023-04-16T09:27:33.647Z,36.30
2023-04-16T09:28:33.603Z,34.60
2023-04-16T09:29:33.569Z,33.90
2023-04-16T09:30:33.554Z,34.60
2023-04-16T09:31:33.566Z,33.80
2023-04-16T09:32:33.523Z,33.70
2023-04-16T09:33:34.928Z,34.50
2023-04-16T09:34:33.459Z,34.20
2023-04-16T09:35:33.420Z,34.60
2023-04-16T09:36:33.397Z,31.20
2023-04-16T09:37:33.372Z,33.00
2023-04-16T09:38:33.344Z,31.50
2023-04-16T09:39:33.314Z,31.00
2023-04-16T09:40:33.301Z,28.60
2023-04-16T09:41:33.339Z,29.30
2023-04-16T09:42:33.265Z,26.70
2023-04-16T09:43:33.222Z,28.80
2023-04-16T09:44:33.201Z,27.30
2023-04-16T09:45:33.192Z,28.50
2023-04-16T09:46:33.161Z,29.30
2023-04-16T09:47:33.161Z,29.70
2023-04-16T09:48:33.104Z,29.90
2023-04-16T09:49:33.102Z,28.20
2023-04-16T09:50:33.105Z,29.80
2023-04-16T09:51:33.033Z,30.00
2023-04-16T09:52:33.003Z,28.80
2023-04-16T09:53:32.978Z,29.90
2023-04-16T09:54:32.972Z,30.10
2023-04-16T09:55:32.929Z,27.90
2023-04-16T09:56:32.913Z,29.50
2023-04-16T09:57:32.881Z,28.20
2023-04-16T09:58:32.861Z,28.00
2023-04-16T09:59:32.832Z,27.30
2023-04-16T10:00:32.816Z,25.70
2023-04-16T10:01:32.979Z,26.50
2023-04-16T10:02:32.808Z,25.80
2023-04-16T10:03:32.957Z,24.70
2023-04-16T10:04:32.749Z,24.50
2023-04-16T10:05:32.708Z,25.50
2023-04-16T10:06:32.665Z,24.50
2023-04-16T10:07:32.641Z,25.70
2023-04-16T10:08:32.616Z,25.70
2023-04-16T10:09:32.590Z,24.00
2023-04-16T10:10:32.582Z,24.90
2023-04-16T10:11:32.541Z,23.50
2023-04-16T10:12:32.520Z,23.40
2023-04-16T10:13:32.492Z,22.80
2023-04-16T10:14:32.474Z,21.00
2023-04-16T10:15:32.443Z,21.40
2023-04-16T10:16:32.473Z,20.70
2023-04-16T10:17:32.439Z,22.90
2023-04-16T10:18:32.369Z,22.10
2023-04-16T10:19:32.353Z,22.30
2023-04-16T10:20:32.323Z,22.50
2023-04-16T10:21:32.317Z,22.00
2023-04-16T10:22:32.277Z,22.80
2023-04-16T10:23:32.252Z,20.80
2023-04-16T10:24:32.225Z,21.60
2023-04-16T10:25:32.200Z,21.20
2023-04-16T10:26:32.178Z,21.60
2023-04-16T10:27:32.145Z,20.20
2023-04-16T10:28:32.130Z,21.30
2023-04-16T10:29:32.104Z,20.90
2023-04-16T10:30:32.168Z,20.50
2023-04-16T10:31:32.192Z,20.30
2023-04-16T10:32:32.068Z,20.00
2023-04-16T10:33:31.999Z,21.10
2023-04-16T10:34:31.983Z,20.50
2023-04-16T10:35:31.953Z,21.70
2023-04-16T10:36:31.939Z,21.30
2023-04-16T10:37:31.935Z,20.00
2023-04-16T10:38:31.906Z,20.20
2023-04-16T10:39:31.859Z,21.10
2023-04-16T10:40:31.836Z,20.30
2023-04-16T10:41:31.809Z,19.30
2023-04-16T10:42:31.798Z,19.30
2023-04-16T10:43:31.764Z,19.10
2023-04-16T10:44:31.734Z,19.20
2023-04-16T10:45:31.734Z,18.70
2023-04-16T10:46:31.729Z,18.20
2023-04-16T10:47:31.708Z,18.00
2023-04-16T10:48:46.549Z,18.00
2023-04-16T10:49:31.619Z,18.70
2023-04-16T10:50:31.596Z,17.90
2023-04-16T10:51:31.715Z,16.60
2023-04-16T10:52:31.544Z,18.10
2023-04-16T10:53:31.549Z,16.80
2023-04-16T10:54:31.499Z,17.40
2023-04-16T10:55:31.468Z,16.50
2023-04-16T10:56:31.468Z,16.10
2023-04-16T10:57:31.419Z,17.10
2023-04-16T10:58:31.404Z,15.80
2023-04-16T10:59:31.377Z,15.90
2023-04-16T11:00:31.352Z,15.10
2023-04-16T11:01:31.415Z,15.90
2023-04-16T11:02:31.498Z,15.50
2023-04-16T11:03:31.426Z,15.90
2023-04-16T11:04:31.388Z,15.30
2023-04-16T11:05:31.230Z,15.50
2023-04-16T11:06:31.207Z,15.60
2023-04-16T11:07:31.181Z,16.40
2023-04-16T11:08:31.160Z,16.40
2023-04-16T11:09:31.155Z,16.10
2023-04-16T11:10:31.114Z,15.30
2023-04-16T11:11:31.087Z,16.10
2023-04-16T11:12:31.075Z,14.90
2023-04-16T11:13:31.053Z,15.00
2023-04-16T11:14:31.019Z,15.70
2023-04-16T11:15:31.002Z,16.60
2023-04-16T11:16:30.972Z,17.50
2023-04-16T11:17:31.004Z,16.10
2023-04-16T11:18:30.932Z,16.20
2023-04-16T11:19:30.900Z,16.40
2023-04-16T11:20:30.876Z,14.80
2023-04-16T11:21:30.853Z,15.00
2023-04-16T11:22:30.831Z,16.20
2023-04-16T11:23:30.803Z,15.00
2023-04-16T11:24:30.790Z,15.10
2023-04-16T11:25:30.796Z,14.90
2023-04-16T11:26:30.849Z,15.30
2023-04-16T11:27:30.714Z,15.10
2023-04-16T11:28:30.687Z,14.30
2023-04-16T11:29:30.659Z,13.10
2023-04-16T11:30:30.633Z,13.50
2023-04-16T11:31:30.631Z,13.80
2023-04-16T11:32:30.624Z,14.30
2023-04-16T11:33:30.564Z,13.80
2023-04-16T11:34:30.543Z,13.70
2023-04-16T11:35:30.532Z,13.80
2023-04-16T11:36:30.501Z,13.00
2023-04-16T11:37:30.470Z,13.00
2023-04-16T11:38:30.448Z,13.00
2023-04-16T11:39:30.423Z,12.90
2023-04-16T11:40:30.413Z,12.80
2023-04-16T11:41:30.407Z,13.10
2023-04-16T11:42:30.391Z,12.40
2023-04-16T11:43:30.322Z,13.70
2023-04-16T11:44:30.316Z,12.20
2023-04-16T11:45:30.278Z,12.60
2023-04-16T11:46:30.283Z,13.00
2023-04-16T11:47:30.419Z,12.80
2023-04-16T11:48:30.217Z,12.70
2023-04-16T11:49:30.191Z,13.30
2023-04-16T11:50:30.169Z,12.30
2023-04-16T11:51:30.138Z,12.10
2023-04-16T11:52:30.125Z,12.60
2023-04-16T11:53:30.089Z,12.40
2023-04-16T11:54:30.070Z,12.10
2023-04-16T11:55:30.043Z,11.70
2023-04-16T11:56:30.028Z,11.30
2023-04-16T11:57:30.016Z,10.80
2023-04-16T11:58:29.976Z,11.30
2023-04-16T11:59:29.948Z,10.60
2023-04-16T12:00:29.924Z,12.10
2023-04-16T12:01:29.901Z,11.10
2023-04-16T12:02:30.041Z,11.30
2023-04-16T12:03:30.036Z,11.50
2023-04-16T12:04:29.928Z,11.50
2023-04-16T12:05:29.803Z,11.80
2023-04-16T12:06:29.785Z,11.50
2023-04-16T12:07:29.756Z,12.80
2023-04-16T12:08:29.760Z,11.40
2023-04-16T12:09:29.708Z,11.50
2023-04-16T12:10:29.700Z,11.70
2023-04-16T12:11:29.675Z,11.50
2023-04-16T12:12:29.642Z,13.10
2023-04-16T12:13:29.634Z,13.00
2023-04-16T12:14:29.589Z,13.80
2023-04-16T12:15:29.569Z,12.60
2023-04-16T12:16:29.655Z,12.90
2023-04-16T12:17:29.573Z,12.80
2023-04-16T12:18:29.497Z,12.90
2023-04-16T12:19:29.484Z,12.50
2023-04-16T12:20:29.450Z,11.60
2023-04-16T12:21:29.425Z,12.80
2023-04-16T12:22:29.401Z,12.30
2023-04-16T12:23:29.376Z,12.90
2023-04-16T12:24:29.354Z,12.60
2023-04-16T12:25:29.337Z,13.60
2023-04-16T12:26:29.305Z,13.60
2023-04-16T12:27:29.285Z,15.10
2023-04-16T12:28:29.263Z,13.30
2023-04-16T12:29:29.275Z,14.10
2023-04-16T12:30:29.212Z,13.60
2023-04-16T12:31:29.238Z,13.70
2023-04-16T12:32:29.217Z,13.70
2023-04-16T12:33:29.151Z,13.80
2023-04-16T12:34:48.043Z,13.60
2023-04-16T12:35:29.090Z,14.60
2023-04-16T12:36:29.071Z,14.20
2023-04-16T12:37:29.048Z,15.00
2023-04-16T12:38:29.043Z,15.00
2023-04-16T12:39:28.999Z,15.00
2023-04-16T12:40:28.974Z,15.80
2023-04-16T12:41:28.946Z,16.00
2023-04-16T12:42:28.946Z,15.50
2023-04-16T12:43:28.912Z,16.20
2023-04-16T12:44:28.877Z,16.80
2023-04-16T12:45:28.890Z,17.00
2023-04-16T12:46:28.923Z,17.30
2023-04-16T12:47:28.872Z,17.80
2023-04-16T12:48:28.784Z,17.30
2023-04-16T12:49:28.755Z,17.40
2023-04-16T12:50:28.750Z,18.80
2023-04-16T12:51:28.717Z,17.10
2023-04-16T12:52:28.690Z,18.20